createdAt,value
2022-08-05T00:00:16.144Z,28.46
2022-08-05T00:02:44.077Z,28.38
2022-08-05T00:05:27.485Z,28.19
2022-08-05T00:08:34.245Z,28.32
2022-08-05T00:10:52.771Z,27.95
2022-08-05T00:13:19.803Z,27.71
2022-08-05T00:15:58.190Z,27.89
2022-08-05T00:18:27.349Z,27.68
2022-08-05T00:20:58.219Z,27.61
2022-08-05T00:23:44.693Z,27.48
2022-08-05T00:26:12.183Z,27.47
2022-08-05T00:28:38.950Z,27.30
2022-08-05T00:31:07.618Z,27.33
2022-08-05T00:34:55.262Z,27.08
2022-08-05T00:37:09.986Z,27.13
2022-08-05T00:39:13.799Z,27.01
2022-08-05T00:41:51.449Z,26.86
2022-08-05T00:44:21.388Z,26.87
2022-08-05T00:46:53.922Z,26.75
2022-08-05T00:49:27.964Z,26.68
2022-08-05T00:51:59.843Z,26.89
2022-08-05T00:54:28.002Z,26.61
2022-08-05T00:57:14.808Z,26.55
2022-08-05T01:00:01.869Z,26.56
2022-08-05T01:02:50.218Z,26.66
2022-08-05T01:05:37.100Z,26.43
2022-08-05T01:08:42.156Z,26.54
2022-08-05T01:11:37.213Z,26.39
2022-08-05T01:14:11.795Z,26.50
2022-08-05T01:17:00.047Z,26.57
2022-08-05T01:20:00.815Z,26.64
2022-08-05T01:22:40.440Z,26.72
2022-08-05T01:25:39.830Z,26.71
2022-08-05T01:28:43.928Z,26.76
2022-08-05T01:31:31.656Z,26.66
2022-08-05T01:34:19.816Z,26.75
2022-08-05T01:36:55.067Z,26.67
2022-08-05T01:39:36.105Z,26.62
2022-08-05T01:42:14.382Z,26.62
2022-08-05T01:44:44.081Z,26.59
2022-08-05T01:47:14.859Z,26.63
2022-08-05T01:50:00.048Z,26.73
2022-08-05T01:52:29.990Z,26.70
2022-08-05T01:55:00.590Z,26.63
2022-08-05T01:58:13.738Z,26.70
2022-08-05T02:00:18.682Z,26.73
2022-08-05T02:03:07.353Z,26.81
2022-08-05T02:05:53.586Z,26.66
2022-08-05T02:08:29.677Z,26.63
2022-08-05T02:11:33.773Z,26.68
2022-08-05T02:14:47.075Z,26.73
2022-08-05T02:18:27.998Z,26.62
2022-08-05T02:20:22.190Z,26.53
2022-08-05T02:22:57.055Z,26.53
2022-08-05T02:25:33.150Z,26.53
2022-08-05T02:28:02.233Z,26.54
2022-08-05T02:30:51.812Z,26.63
2022-08-05T02:33:24.175Z,26.55
2022-08-05T02:35:59.078Z,26.63
2022-08-05T02:38:35.216Z,26.74
2022-08-05T02:41:14.794Z,26.71
2022-08-05T02:44:06.320Z,26.74
2022-08-05T02:46:35.447Z,26.78
2022-08-05T02:49:02.867Z,26.69
2022-08-05T02:52:03.750Z,26.69
2022-08-05T02:54:34.514Z,26.54
2022-08-05T02:57:10.410Z,26.70
2022-08-05T02:59:54.135Z,26.56
2022-08-05T03:02:27.595Z,26.62
2022-08-05T03:04:57.208Z,26.49
2022-08-05T03:08:00.525Z,26.45
2022-08-05T03:10:15.729Z,26.50
2022-08-05T03:12:51.945Z,26.53
2022-08-05T03:15:20.263Z,26.46
2022-08-05T03:17:46.717Z,26.42
2022-08-05T03:20:13.583Z,26.42
2022-08-05T03:22:44.266Z,26.47
2022-08-05T03:25:33.241Z,26.47
2022-08-05T03:28:08.182Z,26.17
2022-08-05T03:30:35.910Z,26.19
2022-08-05T03:33:05.847Z,26.32
2022-08-05T03:35:33.724Z,26.37
2022-08-05T03:38:01.543Z,26.37
2022-08-05T03:40:32.353Z,26.31
2022-08-05T03:43:01.439Z,26.07
2022-08-05T03:45:55.120Z,25.93
2022-08-05T03:48:25.214Z,25.90
2022-08-05T03:50:59.160Z,25.81
2022-08-05T03:55:51.302Z,25.82
2022-08-05T03:56:46.494Z,25.51
2022-08-05T03:59:47.192Z,25.46
2022-08-05T04:02:38.977Z,25.60
2022-08-05T04:05:12.355Z,25.55
2022-08-05T04:07:58.277Z,25.35
2022-08-05T04:10:32.023Z,25.18
2022-08-05T04:12:59.259Z,24.90
2022-08-05T04:15:27.736Z,24.81
2022-08-05T04:18:03.241Z,24.82
2022-08-05T04:20:29.820Z,24.90
2022-08-05T04:22:58.249Z,25.05
2022-08-05T04:25:57.829Z,24.97
2022-08-05T04:28:12.825Z,25.05
2022-08-05T04:30:39.542Z,24.85
2022-08-05T04:33:06.235Z,24.80
2022-08-05T04:36:15.615Z,24.89
2022-08-05T04:38:20.778Z,24.79
2022-08-05T04:40:50.641Z,24.72
2022-08-05T04:43:17.592Z,24.77
2022-08-05T04:45:55.047Z,24.77
2022-08-05T04:48:27.695Z,24.70
2022-08-05T04:51:03.236Z,24.64
2022-08-05T04:53:36.569Z,24.71
2022-08-05T04:56:33.742Z,24.68
2022-08-05T04:58:53.839Z,24.58
2022-08-05T05:02:05.676Z,24.58
2022-08-05T05:04:06.810Z,24.36
2022-08-05T05:06:40.753Z,24.30
2022-08-05T05:09:14.354Z,24.41
2022-08-05T05:11:55.579Z,24.34
2022-08-05T05:14:31.569Z,24.42
2022-08-05T05:17:01.982Z,24.43
2022-08-05T05:19:36.352Z,24.39
2022-08-05T05:22:24.452Z,24.48
2022-08-05T05:24:57.593Z,24.38
2022-08-05T05:27:45.015Z,24.41
2022-08-05T05:30:29.247Z,24.42
2022-08-05T05:33:00.540Z,24.40
2022-08-05T05:35:37.657Z,24.44
2022-08-05T05:38:08.969Z,24.56
2022-08-05T05:40:42.538Z,24.58
2022-08-05T05:43:15.159Z,24.64
2022-08-05T05:45:54.585Z,24.57
2022-08-05T05:48:27.604Z,24.54
2022-08-05T05:50:54.540Z,24.66
2022-08-05T05:53:22.735Z,24.67
2022-08-05T05:55:51.492Z,24.75
2022-08-05T05:58:31.578Z,24.74
2022-08-05T06:01:12.664Z,24.75
2022-08-05T06:04:00.684Z,24.86
2022-08-05T06:06:30.827Z,24.90
2022-08-05T06:08:58.176Z,25.02
2022-08-05T06:11:24.640Z,24.94
2022-08-05T06:13:53.953Z,24.84
2022-08-05T06:16:28.691Z,24.85
2022-08-05T06:19:00.267Z,24.73
2022-08-05T06:21:35.865Z,24.61
2022-08-05T06:24:11.427Z,24.62
2022-08-05T06:26:52.251Z,24.78
2022-08-05T06:29:42.932Z,24.84
2022-08-05T06:32:25.493Z,24.79
2022-08-05T06:34:59.203Z,25.05
2022-08-05T06:37:56.424Z,25.07
2022-08-05T06:40:21.072Z,25.09
2022-08-05T06:42:51.669Z,25.10
2022-08-05T06:45:44.730Z,25.05
2022-08-05T06:48:47.376Z,25.20
2022-08-05T06:50:55.819Z,25.23
2022-08-05T06:53:28.343Z,25.40
2022-08-05T06:55:59.987Z,25.49
2022-08-05T06:58:29.863Z,25.59
2022-08-05T07:01:03.586Z,25.71
2022-08-05T07:03:32.926Z,25.85
2022-08-05T07:06:05.374Z,25.97
2022-08-05T07:08:40.205Z,26.04
2022-08-05T07:11:08.545Z,26.28
2022-08-05T07:14:00.770Z,26.16
2022-08-05T07:17:59.875Z,26.17
2022-08-05T07:22:27.801Z,26.58
2022-08-05T07:24:58.233Z,26.55
2022-08-05T07:27:27.765Z,26.60
2022-08-05T07:30:22.945Z,26.72
2022-08-05T07:32:55.054Z,26.98
2022-08-05T07:35:56.649Z,27.00
2022-08-05T07:38:08.289Z,26.84
2022-08-05T07:40:39.058Z,26.81
2022-08-05T07:43:14.584Z,26.57
2022-08-05T07:45:57.273Z,26.82
2022-08-05T07:49:03.076Z,26.80
2022-08-05T07:51:23.350Z,26.88
2022-08-05T07:53:58.352Z,26.95
2022-08-05T07:57:00.645Z,27.10
2022-08-05T07:59:11.298Z,27.15
2022-08-05T08:01:41.536Z,27.16
2022-08-05T08:04:23.002Z,27.10
2022-08-05T08:07:07.078Z,27.01
2022-08-05T08:09:33.842Z,26.82
2022-08-05T08:12:09.053Z,26.94
2022-08-05T08:14:42.562Z,27.06
2022-08-05T08:17:20.461Z,27.12
2022-08-05T08:20:42.795Z,26.90
2022-08-05T08:22:35.137Z,26.92
2022-08-05T08:25:02.726Z,26.92
2022-08-05T08:27:39.874Z,26.94
2022-08-05T08:30:29.936Z,26.97
2022-08-05T08:32:58.332Z,26.98
2022-08-05T08:35:29.027Z,26.95
2022-08-05T08:38:01.832Z,26.94
2022-08-05T08:40:29.806Z,26.92
2022-08-05T08:42:58.333Z,26.86
2022-08-05T08:45:49.520Z,26.80
2022-08-05T08:48:36.075Z,26.74
2022-08-05T08:52:01.853Z,26.68
2022-08-05T08:53:53.561Z,26.73
2022-08-05T08:56:22.192Z,26.59
2022-08-05T08:58:50.557Z,26.28
2022-08-05T09:01:18.763Z,26.46
2022-08-05T09:03:54.270Z,26.74
2022-08-05T09:06:24.221Z,26.33
2022-08-05T09:08:55.439Z,26.43
2022-08-05T09:11:51.473Z,26.61
2022-08-05T09:14:54.475Z,26.85
2022-08-05T09:16:55.219Z,26.76
2022-08-05T09:19:24.722Z,26.26
2022-08-05T09:22:22.686Z,26.45
2022-08-05T09:24:44.691Z,26.90
2022-08-05T09:28:05.940Z,27.00
2022-08-05T09:30:17.702Z,27.18
2022-08-05T09:32:51.393Z,27.87
2022-08-05T09:35:26.817Z,28.24
2022-08-05T09:38:12.772Z,28.01
2022-08-05T09:40:51.840Z,27.57
2022-08-05T09:43:40.858Z,28.13
2022-08-05T09:46:27.985Z,28.31
2022-08-05T09:49:08.015Z,28.65
2022-08-05T09:51:43.135Z,29.32
2022-08-05T09:54:11.247Z,29.08
2022-08-05T09:56:39.017Z,29.05
2022-08-05T09:59:17.152Z,29.43
2022-08-05T10:01:46.554Z,29.61
2022-08-05T10:04:16.176Z,29.63
2022-08-05T10:06:59.394Z,29.80
2022-08-05T10:09:29.443Z,30.16
2022-08-05T10:12:31.047Z,29.48
2022-08-05T10:15:21.672Z,30.33
2022-08-05T10:18:06.651Z,30.46
2022-08-05T10:20:36.528Z,30.79
2022-08-05T10:23:04.455Z,30.46
2022-08-05T10:25:35.953Z,30.65
2022-08-05T10:28:12.807Z,30.75
2022-08-05T10:32:54.146Z,31.21
2022-08-05T10:33:36.012Z,30.68
2022-08-05T10:36:05.096Z,31.15
2022-08-05T10:38:33.715Z,31.01
2022-08-05T10:41:46.537Z,31.53
2022-08-05T10:44:18.957Z,30.25
2022-08-05T10:46:53.968Z,30.57
2022-08-05T10:49:27.207Z,30.94
2022-08-05T10:52:02.639Z,30.53
2022-08-05T10:55:03.821Z,31.44
2022-08-05T10:57:32.100Z,31.78
2022-08-05T11:00:29.220Z,31.48
2022-08-05T11:03:23.652Z,31.88
2022-08-05T11:06:14.967Z,31.45
2022-08-05T11:09:16.484Z,32.25
2022-08-05T11:11:53.172Z,32.80
2022-08-05T11:14:57.351Z,32.43
2022-08-05T11:17:57.745Z,32.15
2022-08-05T11:20:37.244Z,31.91
2022-08-05T11:24:02.655Z,32.55
2022-08-05T11:26:28.076Z,32.08
2022-08-05T11:29:02.379Z,32.41
2022-08-05T11:31:51.920Z,32.13
2022-08-05T11:34:38.981Z,32.55
2022-08-05T11:37:06.304Z,33.03
2022-08-05T11:40:00.390Z,31.80
2022-08-05T11:42:38.040Z,31.92
2022-08-05T11:45:14.464Z,32.51
2022-08-05T11:47:55.169Z,32.63
2022-08-05T11:50:22.788Z,32.64
2022-08-05T11:52:52.099Z,32.91
2022-08-05T11:55:21.021Z,32.15
2022-08-05T11:58:11.012Z,32.49
2022-08-05T12:00:38.133Z,32.13
2022-08-05T12:03:28.406Z,32.91
2022-08-05T12:06:02.049Z,33.24
2022-08-05T12:08:28.861Z,33.63
2022-08-05T12:11:05.483Z,32.44
2022-08-05T12:13:49.712Z,32.82
2022-08-05T12:16:27.170Z,32.60
2022-08-05T12:18:55.870Z,32.27
2022-08-05T12:21:26.781Z,32.70
2022-08-05T12:24:08.321Z,32.14
2022-08-05T12:26:39.382Z,33.09
2022-08-05T12:29:16.356Z,33.32
2022-08-05T12:31:53.099Z,33.27
2022-08-05T12:34:28.192Z,33.49
2022-08-05T12:36:57.105Z,32.52
2022-08-05T12:39:28.111Z,33.56
2022-08-05T12:42:09.424Z,32.91
2022-08-05T12:44:42.203Z,33.13
2022-08-05T12:47:12.487Z,33.12
2022-08-05T12:50:04.561Z,32.55
2022-08-05T12:52:39.759Z,32.74
2022-08-05T12:55:26.273Z,32.86
2022-08-05T12:58:49.311Z,31.64
2022-08-05T13:02:02.215Z,31.77
2022-08-05T13:03:38.870Z,32.30
2022-08-05T13:06:10.485Z,32.29
2022-08-05T13:08:38.809Z,32.35
2022-08-05T13:11:07.699Z,32.38
2022-08-05T13:14:06.742Z,32.33
2022-08-05T13:16:27.685Z,32.83
2022-08-05T13:18:57.915Z,33.12
2022-08-05T13:21:28.588Z,32.62
2022-08-05T13:24:06.208Z,32.58
2022-08-05T13:26:35.358Z,32.03
2022-08-05T13:29:02.000Z,31.12
2022-08-05T13:31:33.948Z,31.28
2022-08-05T13:34:21.029Z,31.56
2022-08-05T13:36:52.761Z,32.78
2022-08-05T13:40:13.234Z,32.70
2022-08-05T13:42:06.275Z,32.35
2022-08-05T13:44:32.824Z,32.47
2022-08-05T13:47:08.514Z,33.07
2022-08-05T13:49:35.985Z,33.17
2022-08-05T13:52:14.553Z,34.66
2022-08-05T13:54:41.688Z,34.48
2022-08-05T13:57:12.396Z,34.09
2022-08-05T13:59:57.309Z,33.71
2022-08-05T14:02:26.458Z,33.50
2022-08-05T14:05:11.901Z,32.04
2022-08-05T14:08:00.480Z,31.97
2022-08-05T14:10:30.983Z,33.97
2022-08-05T14:12:58.706Z,33.50
2022-08-05T14:16:05.640Z,33.25
2022-08-05T14:18:15.033Z,33.06
2022-08-05T14:20:47.914Z,33.88
2022-08-05T14:23:24.816Z,33.60
2022-08-05T14:25:58.567Z,33.46
2022-08-05T14:28:28.241Z,32.16
2022-08-05T14:30:55.921Z,32.86
2022-08-05T14:33:23.880Z,32.25
2022-08-05T14:35:52.034Z,32.13
2022-08-05T14:38:32.385Z,32.43
2022-08-05T14:41:06.206Z,32.46
2022-08-05T14:44:00.122Z,33.10
2022-08-05T14:46:28.562Z,33.40
2022-08-05T14:48:56.459Z,33.03
2022-08-05T14:51:24.378Z,33.46
2022-08-05T14:54:26.656Z,32.36
2022-08-05T14:56:44.104Z,32.16
2022-08-05T14:59:13.154Z,32.07
2022-08-05T15:01:49.008Z,31.49
2022-08-05T15:04:20.422Z,32.24
2022-08-05T15:06:50.037Z,31.77
2022-08-05T15:09:52.510Z,31.23
2022-08-05T15:12:09.451Z,31.93
2022-08-05T15:14:48.314Z,31.09
2022-08-05T15:17:47.303Z,31.00
2022-08-05T15:20:04.915Z,30.38
2022-08-05T15:22:31.496Z,30.29
2022-08-05T15:24:59.092Z,30.78
2022-08-05T15:27:26.039Z,30.85
2022-08-05T15:29:54.323Z,31.26
2022-08-05T15:32:27.378Z,30.65
2022-08-05T15:34:56.621Z,30.09
2022-08-05T15:38:08.498Z,29.94
2022-08-05T15:40:59.775Z,29.28
2022-08-05T15:43:07.928Z,29.24
2022-08-05T15:45:38.571Z,29.30
2022-08-05T15:48:05.749Z,28.99
2022-08-05T15:50:33.625Z,28.57
2022-08-05T15:53:04.126Z,28.66
2022-08-05T15:56:02.350Z,29.06
2022-08-05T15:58:19.102Z,29.45
2022-08-05T16:00:50.681Z,28.81
2022-08-05T16:03:30.149Z,28.61
2022-08-05T16:05:59.323Z,28.58
2022-08-05T16:08:30.398Z,28.75
2022-08-05T16:10:57.919Z,28.58
2022-08-05T16:13:34.339Z,28.32
2022-08-05T16:16:04.716Z,28.07
2022-08-05T16:18:35.073Z,27.78
2022-08-05T16:21:18.579Z,28.71
2022-08-05T16:23:53.908Z,29.02
2022-08-05T16:26:26.483Z,29.16
2022-08-05T16:28:55.270Z,28.87
2022-08-05T16:31:22.382Z,29.26
2022-08-05T16:33:49.823Z,28.26
2022-08-05T16:36:20.442Z,28.09
2022-08-05T16:38:54.931Z,28.07
2022-08-05T16:41:21.724Z,28.18
2022-08-05T16:44:09.665Z,27.75
2022-08-05T16:46:41.151Z,28.28
2022-08-05T16:49:08.984Z,28.13
2022-08-05T16:51:42.750Z,28.04
2022-08-05T16:54:24.046Z,27.40
2022-08-05T16:56:53.999Z,27.13
2022-08-05T16:59:20.570Z,26.82
2022-08-05T17:01:54.478Z,27.10
2022-08-05T17:04:26.147Z,27.13
2022-08-05T17:06:55.237Z,26.87
2022-08-05T17:09:22.896Z,26.94
2022-08-05T17:11:56.111Z,26.69
2022-08-05T17:14:36.707Z,26.23
2022-08-05T17:17:05.820Z,25.93
2022-08-05T17:19:32.303Z,25.97
2022-08-05T17:22:00.929Z,25.91
2022-08-05T17:24:38.562Z,25.76
2022-08-05T17:27:09.051Z,25.63
2022-08-05T17:29:41.004Z,25.24
2022-08-05T17:32:11.405Z,25.50
2022-08-05T17:34:39.031Z,25.29
2022-08-05T17:37:29.466Z,25.24
2022-08-05T17:39:55.786Z,25.35
2022-08-05T17:42:27.026Z,25.36
2022-08-05T17:44:56.520Z,24.93
2022-08-05T17:47:23.646Z,25.18
2022-08-05T17:49:59.899Z,25.25
2022-08-05T17:52:32.408Z,25.07
2022-08-05T17:55:00.131Z,24.91
2022-08-05T17:57:27.796Z,24.78
2022-08-05T18:00:03.224Z,24.72
2022-08-05T18:02:31.655Z,24.59
2022-08-05T18:04:58.767Z,24.61
2022-08-05T18:07:25.310Z,24.77
2022-08-05T18:10:02.172Z,25.06
2022-08-05T18:12:36.828Z,24.72
2022-08-05T18:15:04.873Z,24.63
2022-08-05T18:18:00.830Z,24.40
2022-08-05T18:20:19.311Z,24.19
2022-08-05T18:22:57.448Z,24.25
2022-08-05T18:25:24.998Z,24.04
2022-08-05T18:27:52.515Z,24.42
2022-08-05T18:30:19.549Z,24.07
2022-08-05T18:32:53.212Z,23.90
2022-08-05T18:35:20.972Z,23.92
2022-08-05T18:38:07.886Z,24.03
2022-08-05T18:41:57.092Z,24.38
2022-08-05T18:43:21.457Z,23.97
2022-08-05T18:45:49.672Z,24.09
2022-08-05T18:48:31.641Z,23.89
2022-08-05T18:52:04.883Z,23.69
2022-08-05T18:54:05.733Z,23.76
2022-08-05T18:56:33.023Z,23.72
2022-08-05T18:59:01.635Z,24.00
2022-08-05T19:01:47.297Z,23.78
2022-08-05T19:04:14.380Z,23.76
2022-08-05T19:06:50.746Z,23.65
2022-08-05T19:09:17.240Z,23.42
2022-08-05T19:11:59.517Z,23.67
2022-08-05T19:14:59.313Z,23.60
2022-08-05T19:17:16.387Z,23.32
2022-08-05T19:19:46.845Z,23.29
2022-08-05T19:22:17.112Z,23.25
2022-08-05T19:24:54.423Z,23.42
2022-08-05T19:27:24.550Z,23.37
2022-08-05T19:29:57.126Z,23.47
2022-08-05T19:32:26.263Z,22.95
2022-08-05T19:34:54.533Z,23.10
2022-08-05T19:37:35.047Z,23.13
2022-08-05T19:40:13.061Z,23.16
2022-08-05T19:42:41.783Z,23.33
2022-08-05T19:45:27.547Z,23.08
2022-08-05T19:47:59.780Z,23.15
2022-08-05T19:50:26.516Z,23.20
2022-08-05T19:52:52.944Z,23.16
2022-08-05T19:56:14.733Z,23.09
2022-08-05T19:58:28.208Z,22.82
2022-08-05T20:00:53.028Z,22.99
2022-08-05T20:03:19.500Z,23.02
2022-08-05T20:05:51.487Z,22.86
2022-08-05T20:08:19.032Z,22.71
2022-08-05T20:10:49.747Z,22.81
2022-08-05T20:13:17.473Z,22.90
2022-08-05T20:15:51.819Z,22.66
2022-08-05T20:18:32.808Z,22.65
2022-08-05T20:21:01.879Z,22.58
2022-08-05T20:23:39.472Z,22.40
2022-08-05T20:26:17.807Z,22.50
2022-08-05T20:28:47.803Z,22.63
2022-08-05T20:31:16.726Z,22.32
2022-08-05T20:33:44.469Z,22.27
2022-08-05T20:36:11.814Z,22.18
2022-08-05T20:38:54.166Z,22.27
2022-08-05T20:41:27.028Z,22.37
2022-08-05T20:43:58.762Z,22.25
2022-08-05T20:46:27.204Z,21.95
2022-08-05T20:48:53.750Z,22.16
2022-08-05T20:51:21.316Z,22.14
2022-08-05T20:53:56.913Z,22.18
2022-08-05T20:56:28.691Z,22.11
2022-08-05T20:59:00.135Z,22.04
2022-08-05T21:01:41.278Z,21.97
2022-08-05T21:04:10.555Z,21.83
2022-08-05T21:06:38.251Z,21.89
2022-08-05T21:09:14.542Z,21.76
2022-08-05T21:12:10.553Z,21.75
2022-08-05T21:14:29.227Z,21.62
2022-08-05T21:17:01.816Z,21.55
2022-08-05T21:19:29.853Z,21.66
2022-08-05T21:22:14.630Z,21.63
2022-08-05T21:24:44.428Z,21.52
2022-08-05T21:27:15.861Z,21.49
2022-08-05T21:29:43.249Z,21.34
2022-08-05T21:32:15.046Z,21.39
2022-08-05T21:34:46.449Z,21.30
2022-08-05T21:37:33.021Z,21.32
2022-08-05T21:39:59.472Z,21.34
2022-08-05T21:42:41.139Z,21.26
2022-08-05T21:45:11.551Z,21.16
2022-08-05T21:47:56.018Z,21.16
2022-08-05T21:50:24.727Z,21.10
2022-08-05T21:52:51.204Z,21.17
2022-08-05T21:56:04.140Z,21.02
2022-08-05T21:58:05.795Z,21.01
2022-08-05T22:00:32.546Z,21.02
2022-08-05T22:02:59.634Z,20.96
2022-08-05T22:05:27.225Z,20.97
2022-08-05T22:07:58.855Z,20.89
2022-08-05T22:10:28.745Z,20.98
2022-08-05T22:13:58.831Z,20.88
2022-08-05T22:16:02.532Z,20.88
2022-08-05T22:18:33.978Z,20.67
2022-08-05T22:21:00.782Z,20.84
2022-08-05T22:24:02.383Z,20.76
2022-08-05T22:26:53.928Z,20.73
2022-08-05T22:29:26.709Z,20.65
2022-08-05T22:31:59.715Z,20.65
2022-08-05T22:34:30.332Z,20.57
2022-08-05T22:36:58.500Z,20.58
2022-08-05T22:39:33.303Z,20.53
2022-08-05T22:42:10.590Z,20.52
2022-08-05T22:44:39.998Z,20.67
2022-08-05T22:47:06.847Z,20.51
2022-08-05T22:50:19.663Z,20.40
2022-08-05T22:52:32.261Z,20.37
2022-08-05T22:55:00.908Z,20.36
2022-08-05T22:57:27.457Z,20.44
2022-08-05T23:00:03.335Z,20.75
2022-08-05T23:02:32.983Z,20.65
2022-08-05T23:05:01.985Z,20.78
2022-08-05T23:07:32.062Z,20.50
2022-08-05T23:10:02.123Z,20.55
2022-08-05T23:12:32.700Z,20.37
2022-08-05T23:15:01.370Z,20.42
2022-08-05T23:17:34.514Z,20.50
2022-08-05T23:20:15.497Z,20.36
2022-08-05T23:22:47.127Z,20.29
2022-08-05T23:25:17.427Z,20.40
2022-08-05T23:28:01.774Z,20.36
2022-08-05T23:30:29.151Z,20.26
2022-08-05T23:32:57.747Z,20.19
2022-08-05T23:35:28.441Z,20.19
2022-08-05T23:38:00.969Z,20.18
2022-08-05T23:40:27.621Z,20.17
2022-08-05T23:42:54.169Z,19.99
2022-08-05T23:45:20.849Z,19.99
2022-08-05T23:47:50.437Z,20.18
2022-08-05T23:50:20.498Z,20.23
2022-08-05T23:52:49.711Z,20.27
2022-08-05T23:55:17.827Z,20.04
2022-08-05T23:57:44.350Z,20.06
